sensor_id;sensor_type;location;lat;lon;timestamp;temperature;humidity
6756;DHT22;3415;51.148;7.014;2024-03-02T07:56:45;9.10;1.00
6756;DHT22;3415;51.148;7.014;2024-03-02T07:59:13;9.10;1.00
6756;DHT22;3415;51.148;7.014;2024-03-02T08:01:40;9.10;1.00
6756;DHT22;3415;51.148;7.014;2024-03-02T08:04:07;9.00;1.00
6756;DHT22;3415;51.148;7.014;2024-03-02T08:06:34;9.00;1.00
6756;DHT22;3415;51.148;7.014;2024-03-02T08:09:01;9.10;1.00
6756;DHT22;3415;51.148;7.014;2024-03-02T08:11:30;9.10;1.00
6756;DHT22;3415;51.148;7.014;2024-03-02T08:13:58;9.30;1.00
6756;DHT22;3415;51.148;7.014;2024-03-02T08:16:25;9.50;1.00
6756;DHT22;3415;51.148;7.014;2024-03-02T08:18:53;9.50;1.00
6756;DHT22;3415;51.148;7.014;2024-03-02T08:21:20;9.90;1.00
6756;DHT22;3415;51.148;7.014;2024-03-02T08:23:47;11.60;99.90
6756;DHT22;3415;51.148;7.014;2024-03-02T08:26:14;12.50;99.90
6756;DHT22;3415;51.148;7.014;2024-03-02T08:28:41;12.60;99.90
6756;DHT22;3415;51.148;7.014;2024-03-02T08:31:09;12.60;99.90
6756;DHT22;3415;51.148;7.014;2024-03-02T08:33:37;12.30;99.90
6756;DHT22;3415;51.148;7.014;2024-03-02T08:36:05;12.20;99.90
6756;DHT22;3415;51.148;7.014;2024-03-02T08:38:32;12.20;99.90
6756;DHT22;3415;51.148;7.014;2024-03-02T08:43:27;12.00;99.90
6756;DHT22;3415;51.148;7.014;2024-03-02T08:45:54;12.50;99.90
6756;DHT22;3415;51.148;7.014;2024-03-02T08:48:22;12.60;99.90
6756;DHT22;3415;51.148;7.014;2024-03-02T08:50:49;13.10;99.90
6756;DHT22;3415;51.148;7.014;2024-03-02T08:53:16;13.30;99.90
6756;DHT22;3415;51.148;7.014;2024-03-02T08:55:44;13.90;99.90
6756;DHT22;3415;51.148;7.014;2024-03-02T08:58:11;13.50;99.90
6756;DHT22;3415;51.148;7.014;2024-03-02T09:00:39;13.30;99.90
6756;DHT22;3415;51.148;7.014;2024-03-02T09:03:06;13.40;99.90
6756;DHT22;3415;51.148;7.014;2024-03-02T09:05:34;13.50;99.90
6756;DHT22;3415;51.148;7.014;2024-03-02T09:08:01;13.80;99.90
6756;DHT22;3415;51.148;7.014;2024-03-02T09:10:29;13.80;99.90
6756;DHT22;3415;51.148;7.014;2024-03-02T09:12:56;14.10;99.90
6756;DHT22;3415;51.148;7.014;2024-03-02T09:15:24;13.90;99.90
6756;DHT22;3415;51.148;7.014;2024-03-02T09:17:51;13.70;99.90
6756;DHT22;3415;51.148;7.014;2024-03-02T09:20:17;13.70;99.90
6756;DHT22;3415;51.148;7.014;2024-03-02T09:22:46;13.70;99.90
6756;DHT22;3415;51.148;7.014;2024-03-02T09:25:14;14.50;99.90
6756;DHT22;3415;51.148;7.014;2024-03-02T09:27:41;15.40;99.90
6756;DHT22;3415;51.148;7.014;2024-03-02T09:30:09;15.30;99.90
6756;DHT22;3415;51.148;7.014;2024-03-02T09:32:37;15.20;99.90
6756;DHT22;3415;51.148;7.014;2024-03-02T09:35:04;15.70;99.90
6756;DHT22;3415;51.148;7.014;2024-03-02T09:40:00;16.30;99.90
6756;DHT22;3415;51.148;7.014;2024-03-02T09:42:27;16.30;99.90
6756;DHT22;3415;51.148;7.014;2024-03-02T09:44:54;17.40;99.90
6756;DHT22;3415;51.148;7.014;2024-03-02T09:47:22;17.60;99.90
6756;DHT22;3415;51.148;7.014;2024-03-02T09:49:49;17.80;99.90
6756;DHT22;3415;51.148;7.014;2024-03-02T09:52:16;17.40;99.90
6756;DHT22;3415;51.148;7.014;2024-03-02T09:54:43;17.40;99.90
6756;DHT22;3415;51.148;7.014;2024-03-02T09:57:11;16.80;99.90
6756;DHT22;3415;51.148;7.014;2024-03-02T09:59:38;17.10;99.90
6756;DHT22;3415;51.148;7.014;2024-03-02T10:02:05;17.50;99.90
6756;DHT22;3415;51.148;7.014;2024-03-02T10:04:33;16.70;99.90
6756;DHT22;3415;51.148;7.014;2024-03-02T10:07:12;16.70;99.90
6756;DHT22;3415;51.148;7.014;2024-03-02T10:09:39;16.60;99.90
6756;DHT22;3415;51.148;7.014;2024-03-02T10:12:08;16.90;99.90
6756;DHT22;3415;51.148;7.014;2024-03-02T10:14:38;16.00;99.90
6756;DHT22;3415;51.148;7.014;2024-03-02T10:17:06;15.80;99.90
6756;DHT22;3415;51.148;7.014;2024-03-02T10:19:34;15.80;99.90
6756;DHT22;3415;51.148;7.014;2024-03-02T10:22:03;15.70;99.90
6756;DHT22;3415;51.148;7.014;2024-03-02T10:24:36;16.20;99.90
6756;DHT22;3415;51.148;7.014;2024-03-02T10:27:08;16.60;99.90
6756;DHT22;3415;51.148;7.014;2024-03-02T10:29:41;16.40;99.90
6756;DHT22;3415;51.148;7.014;2024-03-02T10:32:11;16.30;99.90
6756;DHT22;3415;51.148;7.014;2024-03-02T10:34:40;16.70;99.90
6756;DHT22;3415;51.148;7.014;2024-03-02T10:37:07;16.80;99.90
6756;DHT22;3415;51.148;7.014;2024-03-02T10:39:35;20.40;99.90
6756;DHT22;3415;51.148;7.014;2024-03-02T10:42:02;16.70;99.90
6756;DHT22;3415;51.148;7.014;2024-03-02T10:44:30;17.00;99.90
6756;DHT22;3415;51.148;7.014;2024-03-02T10:47:03;16.80;99.90
6756;DHT22;3415;51.148;7.014;2024-03-02T10:49:31;16.80;99.90
6756;DHT22;3415;51.148;7.014;2024-03-02T10:51:58;17.40;99.90
6756;DHT22;3415;51.148;7.014;2024-03-02T10:54:25;17.10;99.90
6756;DHT22;3415;51.148;7.014;2024-03-02T10:56:55;16.70;99.90
6756;DHT22;3415;51.148;7.014;2024-03-02T10:59:28;16.70;99.90
6756;DHT22;3415;51.148;7.014;2024-03-02T11:02:01;17.00;99.90
6756;DHT22;3415;51.148;7.014;2024-03-02T11:04:30;17.10;99.90
6756;DHT22;3415;51.148;7.014;2024-03-02T11:07:00;17.40;99.90
6756;DHT22;3415;51.148;7.014;2024-03-02T11:09:29;17.90;99.90
6756;DHT22;3415;51.148;7.014;2024-03-02T11:12:06;18.60;99.90
6756;DHT22;3415;51.148;7.014;2024-03-02T11:14:41;18.60;99.90
6756;DHT22;3415;51.148;7.014;2024-03-02T11:17:12;18.70;99.90
6756;DHT22;3415;51.148;7.014;2024-03-02T11:19:41;17.80;99.90
6756;DHT22;3415;51.148;7.014;2024-03-02T11:22:11;17.90;99.90
6756;DHT22;3415;51.148;7.014;2024-03-02T11:24:38;18.00;99.90
6756;DHT22;3415;51.148;7.014;2024-03-02T11:27:06;18.20;99.90
6756;DHT22;3415;51.148;7.014;2024-03-02T11:29:43;19.10;99.90
6756;DHT22;3415;51.148;7.014;2024-03-02T11:32:20;18.90;99.90
6756;DHT22;3415;51.148;7.014;2024-03-02T11:34:49;18.10;99.90
6756;DHT22;3415;51.148;7.014;2024-03-02T11:37:18;18.10;99.90
6756;DHT22;3415;51.148;7.014;2024-03-02T11:39:48;18.50;99.90
6756;DHT22;3415;51.148;7.014;2024-03-02T11:44:46;18.30;99.90
6756;DHT22;3415;51.148;7.014;2024-03-02T11:47:16;18.70;99.90
6756;DHT22;3415;51.148;7.014;2024-03-02T11:49:44;19.10;99.90
6756;DHT22;3415;51.148;7.014;2024-03-02T11:52:13;19.20;99.90
6756;DHT22;3415;51.148;7.014;2024-03-02T11:54:41;18.30;99.90
6756;DHT22;3415;51.148;7.014;2024-03-02T11:57:13;17.60;99.90
6756;DHT22;3415;51.148;7.014;2024-03-02T11:59:41;18.70;99.90
6756;DHT22;3415;51.148;7.014;2024-03-02T12:02:16;18.50;99.90
6756;DHT22;3415;51.148;7.014;2024-03-02T12:04:44;18.00;99.90
6756;DHT22;3415;51.148;7.014;2024-03-02T12:07:12;17.90;99.90
6756;DHT22;3415;51.148;7.014;2024-03-02T12:09:39;18.00;99.90
6756;DHT22;3415;51.148;7.014;2024-03-02T12:12:07;17.60;99.90
6756;DHT22;3415;51.148;7.014;2024-03-02T12:14:37;17.60;99.90
6756;DHT22;3415;51.148;7.014;2024-03-02T12:17:05;16.10;99.90
6756;DHT22;3415;51.148;7.014;2024-03-02T12:19:33;16.10;99.90
6756;DHT22;3415;51.148;7.014;2024-03-02T12:24:29;15.10;99.90
6756;DHT22;3415;51.148;7.014;2024-03-02T12:26:57;14.40;99.90
6756;DHT22;3415;51.148;7.014;2024-03-02T12:31:52;13.70;99.90
6756;DHT22;3415;51.148;7.014;2024-03-02T12:34:19;13.80;99.90
6756;DHT22;3415;51.148;7.014;2024-03-02T12:36:47;13.70;99.90
6756;DHT22;3415;51.148;7.014;2024-03-02T12:39:16;13.90;99.90
6756;DHT22;3415;51.148;7.014;2024-03-02T12:41:43;14.00;99.90
6756;DHT22;3415;51.148;7.014;2024-03-02T12:44:10;14.00;99.90
6756;DHT22;3415;51.148;7.014;2024-03-02T12:46:37;13.80;99.90
6756;DHT22;3415;51.148;7.014;2024-03-02T12:49:08;13.90;99.90
6756;DHT22;3415;51.148;7.014;2024-03-02T12:51:37;13.90;99.90
6756;DHT22;3415;51.148;7.014;2024-03-02T12:54:08;14.00;99.90
6756;DHT22;3415;51.148;7.014;2024-03-02T12:56:35;14.10;99.90
6756;DHT22;3415;51.148;7.014;2024-03-02T13:01:30;14.10;99.90
6756;DHT22;3415;51.148;7.014;2024-03-02T13:03:58;13.80;99.90
6756;DHT22;3415;51.148;7.014;2024-03-02T13:06:25;13.80;99.90
6756;DHT22;3415;51.148;7.014;2024-03-02T13:08:54;13.80;99.90
6756;DHT22;3415;51.148;7.014;2024-03-02T13:11:23;13.90;99.90
6756;DHT22;3415;51.148;7.014;2024-03-02T13:13:50;13.90;99.90
6756;DHT22;3415;51.148;7.014;2024-03-02T13:16:18;13.90;99.90
6756;DHT22;3415;51.148;7.014;2024-03-02T13:18:46;13.90;99.90
6756;DHT22;3415;51.148;7.014;2024-03-02T13:21:13;14.00;99.90
6756;DHT22;3415;51.148;7.014;2024-03-02T13:23:40;13.70;99.90
6756;DHT22;3415;51.148;7.014;2024-03-02T13:26:08;13.90;99.90
6756;DHT22;3415;51.148;7.014;2024-03-02T13:28:38;13.90;99.90
6756;DHT22;3415;51.148;7.014;2024-03-02T13:31:05;14.10;99.90
6756;DHT22;3415;51.148;7.014;2024-03-02T13:33:32;14.40;99.90
6756;DHT22;3415;51.148;7.014;2024-03-02T13:35:59;14.40;99.90
6756;DHT22;3415;51.148;7.014;2024-03-02T13:38:28;14.30;99.90
6756;DHT22;3415;51.148;7.014;2024-03-02T13:40:55;14.20;99.90
6756;DHT22;3415;51.148;7.014;2024-03-02T13:43:22;14.30;99.90
6756;DHT22;3415;51.148;7.014;2024-03-02T13:45:51;14.50;99.90
6756;DHT22;3415;51.148;7.014;2024-03-02T13:48:19;14.50;99.90
6756;DHT22;3415;51.148;7.014;2024-03-02T13:50:46;14.50;99.90
6756;DHT22;3415;51.148;7.014;2024-03-02T13:53:12;14.50;99.90
6756;DHT22;3415;51.148;7.014;2024-03-02T13:55:40;14.40;99.90
6756;DHT22;3415;51.148;7.014;2024-03-02T13:58:07;14.40;99.90
6756;DHT22;3415;51.148;7.014;2024-03-02T14:00:35;14.30;99.90
6756;DHT22;3415;51.148;7.014;2024-03-02T14:03:04;14.40;99.90
6756;DHT22;3415;51.148;7.014;2024-03-02T14:05:32;14.40;99.90
6756;DHT22;3415;51.148;7.014;2024-03-02T14:07:59;14.60;99.90
6756;DHT22;3415;51.148;7.014;2024-03-02T14:10:27;14.60;99.90
6756;DHT22;3415;51.148;7.014;2024-03-02T14:12:54;14.70;99.90
6756;DHT22;3415;51.148;7.014;2024-03-02T14:15:21;14.70;99.90
6756;DHT22;3415;51.148;7.014;2024-03-02T14:17:49;14.70;99.90
6756;DHT22;3415;51.148;7.014;2024-03-02T14:20:17;14.60;99.90
6756;DHT22;3415;51.148;7.014;2024-03-02T14:22:48;14.50;99.90
6756;DHT22;3415;51.148;7.014;2024-03-02T14:25:15;14.50;99.90
6756;DHT22;3415;51.148;7.014;2024-03-02T14:27:42;14.40;99.90
6756;DHT22;3415;51.148;7.014;2024-03-02T14:30:11;14.40;99.90
6756;DHT22;3415;51.148;7.014;2024-03-02T14:32:39;14.30;99.90
6756;DHT22;3415;51.148;7.014;2024-03-02T14:35:06;14.30;99.90
6756;DHT22;3415;51.148;7.014;2024-03-02T14:37:38;14.40;99.90
6756;DHT22;3415;51.148;7.014;2024-03-02T14:40:06;14.40;99.90
6756;DHT22;3415;51.148;7.014;2024-03-02T14:42:35;14.30;99.90
6756;DHT22;3415;51.148;7.014;2024-03-02T14:45:02;14.30;99.90
6756;DHT22;3415;51.148;7.014;2024-03-02T14:47:31;14.30;99.90
6756;DHT22;3415;51.148;7.014;2024-03-02T14:49:59;14.40;99.90
6756;DHT22;3415;51.148;7.014;2024-03-02T14:52:26;14.30;99.90
6756;DHT22;3415;51.148;7.014;2024-03-02T14:54:54;14.20;99.90
6756;DHT22;3415;51.148;7.014;2024-03-02T14:57:21;14.20;99.90
6756;DHT22;3415;51.148;7.014;2024-03-02T14:59:59;14.20;99.90
6756;DHT22;3415;51.148;7.014;2024-03-02T15:02:26;14.20;99.90
6756;DHT22;3415;51.148;7.014;2024-03-02T15:04:54;14.20;99.90
6756;DHT22;3415;51.148;7.014;2024-03-02T15:07:21;14.20;99.90
6756;DHT22;3415;51.148;7.014;2024-03-02T15:09:48;14.20;99.90
6756;DHT22;3415;51.148;7.014;2024-03-02T15:12:17;13.90;99.90
6756;DHT22;3415;51.148;7.014;2024-03-02T15:14:46;14.00;99.90
6756;DHT22;3415;51.148;7.014;2024-03-02T15:17:13;14.00;99.90
6756;DHT22;3415;51.148;7.014;2024-03-02T15:19:42;14.10;99.90
6756;DHT22;3415;51.148;7.014;2024-03-02T15:22:09;13.90;99.90
6756;DHT22;3415;51.148;7.014;2024-03-02T15:24:36;13.90;99.90
6756;DHT22;3415;51.148;7.014;2024-03-02T15:27:04;13.80;99.90
6756;DHT22;3415;51.148;7.014;2024-03-02T15:29:35;13.80;99.90
6756;DHT22;3415;51.148;7.014;2024-03-02T15:32:02;13.80;99.90
6756;DHT22;3415;51.148;7.014;2024-03-02T15:34:31;13.80;99.90
6756;DHT22;3415;51.148;7.014;2024-03-02T15:36:58;13.90;99.90
6756;DHT22;3415;51.148;7.014;2024-03-02T15:39:25;13.90;99.90
6756;DHT22;3415;51.148;7.014;2024-03-02T15:41:52;13.90;99.90
6756;DHT22;3415;51.148;7.014;2024-03-02T15:44:19;13.90;99.90
6756;DHT22;3415;51.148;7.014;2024-03-02T15:46:47;14.00;99.90
6756;DHT22;3415;51.148;7.014;2024-03-02T15:49:14;14.00;99.90
6756;DHT22;3415;51.148;7.014;2024-03-02T15:51:42;14.00;99.90
6756;DHT22;3415;51.148;7.014;2024-03-02T15:54:10;14.00;99.90
6756;DHT22;3415;51.148;7.014;2024-03-02T15:56:37;13.90;99.90
6756;DHT22;3415;51.148;7.014;2024-03-02T15:59:04;13.90;99.90
6756;DHT22;3415;51.148;7.014;2024-03-02T16:01:31;13.90;99.90
6756;DHT22;3415;51.148;7.014;2024-03-02T16:03:59;13.80;99.90
6756;DHT22;3415;51.148;7.014;2024-03-02T16:06:26;13.80;99.90
6756;DHT22;3415;51.148;7.014;2024-03-02T16:08:53;13.80;99.90
6756;DHT22;3415;51.148;7.014;2024-03-02T16:13:49;13.70;99.90
6756;DHT22;3415;51.148;7.014;2024-03-02T16:16:16;13.80;99.90
6756;DHT22;3415;51.148;7.014;2024-03-02T16:18:43;13.80;99.90
6756;DHT22;3415;51.148;7.014;2024-03-02T16:21:12;13.70;99.90
6756;DHT22;3415;51.148;7.014;2024-03-02T16:23:39;13.70;99.90
6756;DHT22;3415;51.148;7.014;2024-03-02T16:26:06;13.60;99.90
6756;DHT22;3415;51.148;7.014;2024-03-02T16:28:33;13.60;99.90
6756;DHT22;3415;51.148;7.014;2024-03-02T16:31:00;13.50;99.90
6756;DHT22;3415;51.148;7.014;2024-03-02T16:33:27;13.50;99.90
6756;DHT22;3415;51.148;7.014;2024-03-02T16:35:54;13.40;99.90
6756;DHT22;3415;51.148;7.014;2024-03-02T16:38:22;13.30;99.90
6756;DHT22;3415;51.148;7.014;2024-03-02T16:40:49;13.20;99.90
6756;DHT22;3415;51.148;7.014;2024-03-02T16:43:16;13.30;99.90
6756;DHT22;3415;51.148;7.014;2024-03-02T16:45:43;13.30;99.90
6756;DHT22;3415;51.148;7.014;2024-03-02T16:48:10;13.20;99.90
6756;DHT22;3415;51.148;7.014;2024-03-02T16:50:36;13.10;99.90
6756;DHT22;3415;51.148;7.014;2024-03-02T16:53:04;13.10;99.90
6756;DHT22;3415;51.148;7.014;2024-03-02T16:55:32;13.00;99.90
6756;DHT22;3415;51.148;7.014;2024-03-02T16:57:59;13.00;99.90
6756;DHT22;3415;51.148;7.014;2024-03-02T17:00:26;13.10;99.90
6756;DHT22;3415;51.148;7.014;2024-03-02T17:02:53;13.10;99.90
6756;DHT22;3415;51.148;7.014;2024-03-02T17:05:20;13.10;99.90
6756;DHT22;3415;51.148;7.014;2024-03-02T17:07:47;13.00;99.90
6756;DHT22;3415;51.148;7.014;2024-03-02T17:10:14;13.00;99.90
6756;DHT22;3415;51.148;7.014;2024-03-02T17:12:43;13.00;99.90
6756;DHT22;3415;51.148;7.014;2024-03-02T17:15:10;12.90;99.90
6756;DHT22;3415;51.148;7.014;2024-03-02T17:17:37;12.90;99.90
6756;DHT22;3415;51.148;7.014;2024-03-02T17:20:05;12.90;99.90
6756;DHT22;3415;51.148;7.014;2024-03-02T17:22:34;12.90;99.90
6756;DHT22;3415;51.148;7.014;2024-03-02T17:25:01;12.90;99.90
6756;DHT22;3415;51.148;7.014;2024-03-02T17:27:28;12.90;99.90
6756;DHT22;3415;51.148;7.014;2024-03-02T17:29:58;13.00;99.90
6756;DHT22;3415;51.148;7.014;2024-03-02T17:32:25;12.90;99.90
6756;DHT22;3415;51.148;7.014;2024-03-02T17:34:53;12.90;99.90
6756;DHT22;3415;51.148;7.014;2024-03-02T17:37:20;12.90;99.90
6756;DHT22;3415;51.148;7.014;2024-03-02T17:39:47;12.90;99.90
6756;DHT22;3415;51.148;7.014;2024-03-02T17:42:14;12.90;99.90
6756;DHT22;3415;51.148;7.014;2024-03-02T17:47:09;13.00;99.90
6756;DHT22;3415;51.148;7.014;2024-03-02T17:49:37;12.90;99.90
6756;DHT22;3415;51.148;7.014;2024-03-02T17:52:05;12.90;99.90
6756;DHT22;3415;51.148;7.014;2024-03-02T17:54:32;12.90;99.90
6756;DHT22;3415;51.148;7.014;2024-03-02T17:57:00;12.90;99.90
6756;DHT22;3415;51.148;7.014;2024-03-02T17:59:28;12.90;99.90
6756;DHT22;3415;51.148;7.014;2024-03-02T18:01:55;12.90;99.90
6756;DHT22;3415;51.148;7.014;2024-03-02T18:04:24;12.90;99.90
6756;DHT22;3415;51.148;7.014;2024-03-02T18:06:51;12.90;99.90
6756;DHT22;3415;51.148;7.014;2024-03-02T18:09:18;12.90;99.90
6756;DHT22;3415;51.148;7.014;2024-03-02T18:11:45;12.90;99.90
6756;DHT22;3415;51.148;7.014;2024-03-02T18:14:12;13.00;99.90
6756;DHT22;3415;51.148;7.014;2024-03-02T18:16:39;12.90;99.90
6756;DHT22;3415;51.148;7.014;2024-03-02T18:19:06;13.00;99.90
6756;DHT22;3415;51.148;7.014;2024-03-02T18:21:34;12.90;99.90
6756;DHT22;3415;51.148;7.014;2024-03-02T18:24:01;12.90;99.90
6756;DHT22;3415;51.148;7.014;2024-03-02T18:26:28;12.90;99.90
6756;DHT22;3415;51.148;7.014;2024-03-02T18:28:58;12.90;99.90
6756;DHT22;3415;51.148;7.014;2024-03-02T18:31:25;12.90;99.90
6756;DHT22;3415;51.148;7.014;2024-03-02T18:33:52;12.80;99.90
6756;DHT22;3415;51.148;7.014;2024-03-02T18:36:19;12.80;99.90
6756;DHT22;3415;51.148;7.014;2024-03-02T18:38:47;12.80;99.90
6756;DHT22;3415;51.148;7.014;2024-03-02T18:41:14;12.80;99.90
6756;DHT22;3415;51.148;7.014;2024-03-02T18:43:41;12.70;99.90
6756;DHT22;3415;51.148;7.014;2024-03-02T18:46:09;12.70;99.90
6756;DHT22;3415;51.148;7.014;2024-03-02T18:48:36;12.80;99.90
6756;DHT22;3415;51.148;7.014;2024-03-02T18:51:07;12.70;99.90
6756;DHT22;3415;51.148;7.014;2024-03-02T18:53:35;12.70;99.90
6756;DHT22;3415;51.148;7.014;2024-03-02T18:56:05;12.70;99.90
6756;DHT22;3415;51.148;7.014;2024-03-02T18:58:32;12.70;99.90
6756;DHT22;3415;51.148;7.014;2024-03-02T19:01:00;12.70;99.90
6756;DHT22;3415;51.148;7.014;2024-03-02T19:03:27;12.60;99.90
6756;DHT22;3415;51.148;7.014;2024-03-02T19:05:55;12.60;99.90
6756;DHT22;3415;51.148;7.014;2024-03-02T19:08:22;12.60;99.90
6756;DHT22;3415;51.148;7.014;2024-03-02T19:10:49;12.70;99.90
6756;DHT22;3415;51.148;7.014;2024-03-02T19:13:17;12.70;99.90
6756;DHT22;3415;51.148;7.014;2024-03-02T19:18:11;12.70;99.90
6756;DHT22;3415;51.148;7.014;2024-03-02T19:20:38;12.70;99.90
6756;DHT22;3415;51.148;7.014;2024-03-02T19:23:05;12.70;99.90
6756;DHT22;3415;51.148;7.014;2024-03-02T19:25:33;12.70;99.90
6756;DHT22;3415;51.148;7.014;2024-03-02T19:28:00;12.60;99.90
6756;DHT22;3415;51.148;7.014;2024-03-02T19:30:28;12.60;99.90
6756;DHT22;3415;51.148;7.014;2024-03-02T19:32:55;12.60;99.90
6756;DHT22;3415;51.148;7.014;2024-03-02T19:35:22;12.50;99.90
6756;DHT22;3415;51.148;7.014;2024-03-02T19:37:48;12.50;99.90
6756;DHT22;3415;51.148;7.014;2024-03-02T19:40:16;12.50;99.90
6756;DHT22;3415;51.148;7.014;2024-03-02T19:42:43;12.50;99.90
6756;DHT22;3415;51.148;7.014;2024-03-02T19:45:11;12.50;99.90
6756;DHT22;3415;51.148;7.014;2024-03-02T19:47:40;12.40;99.90
6756;DHT22;3415;51.148;7.014;2024-03-02T19:50:08;12.40;99.90
6756;DHT22;3415;51.148;7.014;2024-03-02T19:52:39;12.40;99.90
6756;DHT22;3415;51.148;7.014;2024-03-02T19:55:07;12.40;99.90
6756;DHT22;3415;51.148;7.014;2024-03-02T19:57:34;12.40;99.90
6756;DHT22;3415;51.148;7.014;2024-03-02T20:00:07;12.40;99.90
6756;DHT22;3415;51.148;7.014;2024-03-02T20:02:35;12.40;99.90
6756;DHT22;3415;51.148;7.014;2024-03-02T20:05:04;12.50;99.90
6756;DHT22;3415;51.148;7.014;2024-03-02T20:07:31;12.50;99.90
6756;DHT22;3415;51.148;7.014;2024-03-02T20:09:59;12.50;99.90
6756;DHT22;3415;51.148;7.014;2024-03-02T20:12:26;12.40;99.90
6756;DHT22;3415;51.148;7.014;2024-03-02T20:14:53;12.40;99.90
6756;DHT22;3415;51.148;7.014;2024-03-02T20:17:20;12.50;99.90
6756;DHT22;3415;51.148;7.014;2024-03-02T20:19:47;12.50;99.90
6756;DHT22;3415;51.148;7.014;2024-03-02T20:22:16;12.50;99.90
6756;DHT22;3415;51.148;7.014;2024-03-02T20:24:43;12.60;99.90
6756;DHT22;3415;51.148;7.014;2024-03-02T20:27:09;12.50;99.90
6756;DHT22;3415;51.148;7.014;2024-03-02T20:29:37;12.50;99.90
6756;DHT22;3415;51.148;7.014;2024-03-02T20:32:04;12.40;99.90
6756;DHT22;3415;51.148;7.014;2024-03-02T20:34:32;12.40;99.90
6756;DHT22;3415;51.148;7.014;2024-03-02T20:36:59;12.50;99.90
6756;DHT22;3415;51.148;7.014;2024-03-02T20:39:28;12.40;99.90
6756;DHT22;3415;51.148;7.014;2024-03-02T20:41:55;12.50;99.90
6756;DHT22;3415;51.148;7.014;2024-03-02T20:46:52;12.30;99.90
6756;DHT22;3415;51.148;7.014;2024-03-02T20:49:19;12.30;99.90
6756;DHT22;3415;51.148;7.014;2024-03-02T20:51:46;12.30;99.90
6756;DHT22;3415;51.148;7.014;2024-03-02T20:54:13;12.30;99.90
6756;DHT22;3415;51.148;7.014;2024-03-02T20:56:43;12.20;99.90
6756;DHT22;3415;51.148;7.014;2024-03-02T20:59:10;12.30;99.90
6756;DHT22;3415;51.148;7.014;2024-03-02T21:01:37;12.20;99.90
6756;DHT22;3415;51.148;7.014;2024-03-02T21:04:04;12.10;99.90
6756;DHT22;3415;51.148;7.014;2024-03-02T21:06:31;12.20;99.90
6756;DHT22;3415;51.148;7.014;2024-03-02T21:08:58;12.30;99.90
6756;DHT22;3415;51.148;7.014;2024-03-02T21:11:25;12.30;99.90
6756;DHT22;3415;51.148;7.014;2024-03-02T21:13:53;12.20;99.90
6756;DHT22;3415;51.148;7.014;2024-03-02T21:16:20;12.20;99.90
6756;DHT22;3415;51.148;7.014;2024-03-02T21:18:47;12.20;99.90
6756;DHT22;3415;51.148;7.014;2024-03-02T21:21:15;12.20;99.90
6756;DHT22;3415;51.148;7.014;2024-03-02T21:23:41;12.20;99.90
6756;DHT22;3415;51.148;7.014;2024-03-02T21:26:08;12.40;99.90
6756;DHT22;3415;51.148;7.014;2024-03-02T21:28:35;12.30;99.90
6756;DHT22;3415;51.148;7.014;2024-03-02T21:31:03;12.10;99.90
6756;DHT22;3415;51.148;7.014;2024-03-02T21:33:30;12.10;99.90
6756;DHT22;3415;51.148;7.014;2024-03-02T21:35:57;12.00;99.90
6756;DHT22;3415;51.148;7.014;2024-03-02T21:40:51;11.90;99.90
6756;DHT22;3415;51.148;7.014;2024-03-02T21:43:18;11.80;99.90
6756;DHT22;3415;51.148;7.014;2024-03-02T21:48:14;11.80;99.90
6756;DHT22;3415;51.148;7.014;2024-03-02T21:50:41;11.80;99.90
6756;DHT22;3415;51.148;7.014;2024-03-02T21:53:08;11.70;99.90
6756;DHT22;3415;51.148;7.014;2024-03-02T21:55:38;11.70;99.90
6756;DHT22;3415;51.148;7.014;2024-03-02T21:58:04;11.70;99.90
6756;DHT22;3415;51.148;7.014;2024-03-02T22:00:31;11.60;99.90
6756;DHT22;3415;51.148;7.014;2024-03-02T22:03:01;11.70;99.90
6756;DHT22;3415;51.148;7.014;2024-03-02T22:05:30;11.60;99.90
6756;DHT22;3415;51.148;7.014;2024-03-02T22:07:56;11.70;99.90
6756;DHT22;3415;51.148;7.014;2024-03-02T22:12:50;11.70;99.90
6756;DHT22;3415;51.148;7.014;2024-03-02T22:15:17;11.70;99.90
6756;DHT22;3415;51.148;7.014;2024-03-02T22:17:44;11.70;99.90
6756;DHT22;3415;51.148;7.014;2024-03-02T22:20:11;11.70;99.90
6756;DHT22;3415;51.148;7.014;2024-03-02T22:22:39;11.70;99.90
6756;DHT22;3415;51.148;7.014;2024-03-02T22:25:07;11.70;99.90
6756;DHT22;3415;51.148;7.014;2024-03-02T22:27:34;11.70;99.90
6756;DHT22;3415;51.148;7.014;2024-03-02T22:30:04;11.70;99.90
6756;DHT22;3415;51.148;7.014;2024-03-02T22:34:58;11.70;99.90
6756;DHT22;3415;51.148;7.014;2024-03-02T22:37:25;11.60;99.90
6756;DHT22;3415;51.148;7.014;2024-03-02T22:39:53;11.60;99.90
6756;DHT22;3415;51.148;7.014;2024-03-02T22:42:20;11.60;99.90
6756;DHT22;3415;51.148;7.014;2024-03-02T22:44:47;11.60;99.90
6756;DHT22;3415;51.148;7.014;2024-03-02T22:47:14;11.60;99.90
6756;DHT22;3415;51.148;7.014;2024-03-02T22:49:41;8.40;99.90
6756;DHT22;3415;51.148;7.014;2024-03-02T22:52:08;11.50;99.90
6756;DHT22;3415;51.148;7.014;2024-03-02T22:54:35;11.50;99.90
